Αρχική σελίδα
METAR-TAF:

METAR-TAF

Αεροδρόμια :

Διεθνής Κρατικός Αερολιμένας Θεσσαλονίκης «Μακεδονία»

Θεσσαλονίκη, Ελλάδα

γεωγραφικό πλάτος: 40-31N, γεωγραφικό μήκος: 022-58E, υψόμετρο: 8 μ

Παρών καιρός

Η αναφορά έγινε 36 λεπτά πριν, στις 07:50 UTC
Άνεμος 1 kt από μεταβλητές κατευθύνσεις
Θερμοκρασία 7°C
Υγρασία 66%
Πίεση 1028 hPa
Ορατότητα 10 χλμ και άνω
Δεν υπάρχουν νέφη με βάση κάτω από τα 1500 μ. και δεν υπάρχουν νέφη σωρειτομελανίτες.

METAR: LGTS 230750Z VRB01KT CAVOK 07/01 Q1028 NOSIG

Χρόνος: 10:26 (08:26 UTC)

Πρόγνωση Καιρού

Η αναφορά έγινε 3 ώρες και 26 λεπτά πριν, στις 05:00 UTC
Η πρόγνωση ισχύει από τις 23 στις 06 UTC έως τις 24 στις 06 UTC
Άνεμος 3 kt από μεταβλητές κατευθύνσεις
Ορατότητα 10 χλμ και άνω
Λίγα νέφη σε ύψος 2500 πόδια

TAF: LGTS 230500Z 2306/2406 VRB03KT 9999 FEW025

Μετεωρολογικές αναφορές και προγνώσεις για περισσότερα από 4000 αεροδρόμια (δελτία METAR και TAF).

Οι διαθέσιμοι σταθμοί απεικονίζονται στο χάρτη με κίτρινες και κόκκινες κουκκίδες.

Μετακινήστε το ποντίκι πάνω από τις κουκκίδες για να δείτε το όνομα του σταθμού.

Στη συνέχεια, κάντε κλικ για να δείτε τις μετεωρολογικές αναφορές και τις προγνώσεις καιρού.

Για να αλλάξετε το χάρτη: κάντε κλικ στα πράσινα κουμπιά με τον μαύρο σταυρό για να ζουμάρετε, στο πράσινο κουμπί με την παύλα για να αφαιρέσετε το ζουμ ή στα πράσινα βέλη για να αντιπαραβάλλετε χάρτες.


METAR-TAF: